Flight Track Log - Related Links

Times and Time Zones

All times are in EDT time to prevent confusion due to time zone crossing. See the UAL3776 flight status page for this flight to view local times or setup timezone preferences in your user account.

Time Position Orientation Groundspeed Altitude Reporting Facility
EDT Latitude Longitude Course Direction KTS MPH feet Rate Location/Type
Tue 11:54:14 25.7983 -80.2722 81° East 147 169 700  Level Miami Center
Tue 11:55:27 25.8081 -80.2056 81° East 214 246 2,800 2,015 Climbing Miami Center
Tue 11:56:28 25.8408 -80.1442 59° Northeast 265 305 5,200 2,177 Climbing Miami Center
Tue 11:57:20 25.9031 -80.1619 346° North 294 338 6,900 1,179 Climbing Miami Center
Tue 11:58:20 25.9711 -80.2078 329° Northwest 286 329 7,400 1,400 Climbing Miami Center
Tue 11:59:20 26.0347 -80.2489 330° Northwest 302 348 9,700 2,400 Climbing Miami Center
Tue 12:00:20 26.1089 -80.2950 331° Northwest 302 348 12,200 2,450 Climbing Miami Center
Tue 12:01:20 26.1831 -80.3386 332° Northwest 302 348 14,600 2,300 Climbing Miami Center
Tue 12:02:20 26.2572 -80.3825 332° Northwest 302 348 16,800 2,050 Climbing Miami Center
Tue 12:03:20 26.3458 -80.4361 332° Northwest 308 354 18,700 1,900 Climbing Miami Center
Tue 12:04:20 26.4178 -80.4778 333° Northwest 313 360 20,600 1,850 Climbing Miami Center
Tue 12:05:20 26.5106 -80.5294 334° Northwest 328 377 22,400 1,500 Climbing Miami Center
Tue 12:06:20 26.5889 -80.5714 334° Northwest 339 390 23,600 1,300 Climbing Miami Center
Tue 12:07:20 26.6897 -80.6281 333° Northwest 353 406 25,000 1,300 Climbing Miami Center
Tue 12:08:20 26.7761 -80.6772 333° Northwest 367 422 26,200 1,200 Climbing Miami Center
Tue 12:09:20 26.8706 -80.7317 333° Northwest 377 434 27,400 1,250 Climbing Miami Center
Tue 12:10:20 26.9694 -80.7861 334° Northwest 383 441 28,700 1,300 Climbing Miami Center
Tue 12:11:20 27.0703 -80.8361 336° Northwest 388 447 30,000 1,300 Climbing Miami Center
Tue 12:12:20 27.1714 -80.8839 337° Northwest 388 447 31,300 1,300 Climbing Miami Center
Tue 12:13:20 27.2744 -80.9319 337° Northwest 393 452 32,600 1,350 Climbing Miami Center
Tue 12:14:20 27.3736 -80.9706 341° North 388 447 34,000 1,200 Climbing Miami Center
Tue 12:15:20 27.4792 -81.0000 346° North 382 440 35,000 1,000 Climbing Miami Center
Tue 12:16:20 27.5806 -81.0317 345° North 377 434 36,000 1,000 Climbing Miami Center
Tue 12:17:20 27.6797 -81.0611 345° North 372 428 37,000 500 Climbing Miami Center
Tue 12:18:20 27.7811 -81.0956 343° North 372 428 37,000  Level Miami Center
Tue 12:19:20 27.8906 -81.1325 343° North 394 453 37,000 50 Level Miami Center
Tue 12:20:20 28.0128 -81.1628 348° North 401 461 37,100 600 Climbing Miami Center
Tue 12:21:20 28.1269 -81.1814 352° North 413 475 38,200 800 Climbing Miami Center
Tue 12:22:20 28.2414 -81.1975 353° North 413 475 38,700 400 Climbing Miami Center
Tue 12:23:20 28.3431 -81.2133 352° North 408 470 39,000 150 Climbing Miami Center
Tue 12:24:20 28.4553 -81.2269 354° North 408 470 39,000  Level Miami Center
Tue 12:25:15 28.5756 -81.2472 352° North 412 474 39,000  Level Jacksonville Center
Tue 12:26:15 28.6947 -81.2642 353° North 423 487 39,000  Level Jacksonville Center
Tue 12:27:15 28.8139 -81.2836 352° North 429 494 39,000  Level Jacksonville Center
Tue 12:28:15 28.9331 -81.2983 354° North 429 494 39,000  Level Jacksonville Center
Tue 12:29:15 29.0544 -81.3178 352° North 429 494 39,000  Level Jacksonville Center
Tue 12:30:15 29.1736 -81.3372 352° North 429 494 39,000  Level Jacksonville Center
Tue 12:31:15 29.2928 -81.3497 355° North 429 494 39,000  Level Jacksonville Center
Tue 12:32:15 29.4139 -81.3692 352° North 429 494 39,000  Level Jacksonville Center
Tue 12:33:15 29.5311 -81.3889 352° North 429 494 39,000  Level Jacksonville Center
Tue 12:34:15 29.6525 -81.4014 355° North 429 494 39,000  Level Jacksonville Center
Tue 12:35:15 29.7775 -81.3922 North 429 494 39,000  Level Jacksonville Center
Tue 12:36:15 29.9006 -81.3808 North 434 499 39,000  Level Jacksonville Center
Tue 12:37:15 30.0236 -81.3717 North 440 506 39,000  Level Jacksonville Center
Tue 12:38:15 30.1489 -81.3625 North 440 506 39,000  Level Jacksonville Center
Tue 12:39:15 30.2719 -81.3508 North 440 506 39,000  Level Jacksonville Center
Tue 12:40:15 30.3969 -81.3392 North 440 506 39,000  Level Jacksonville Center
Tue 12:41:15 30.5200 -81.3325 North 440 506 39,000  Level Jacksonville Center
Tue 12:42:15 30.6453 -81.3206 North 440 506 39,000  Level Jacksonville Center
Tue 12:43:15 30.7683 -81.3139 North 440 506 39,000  Level Jacksonville Center
Tue 12:44:15 30.8892 -81.3022 North 440 506 39,000  Level Jacksonville Center
Tue 12:45:15 31.0144 -81.2928 North 440 506 39,000  Level Jacksonville Center
Tue 12:46:15 31.1375 -81.2808 North 440 506 39,000  Level Jacksonville Center
Tue 12:47:15 31.2625 -81.2739 North 447 514 39,000  Level Jacksonville Center
Tue 12:48:15 31.3711 -81.2647 North 430 495 39,000  Level Jacksonville Center
Tue 12:49:15 31.5067 -81.2528 North 435 501 39,000  Level Jacksonville Center
Tue 12:50:15 31.6317 -81.2406 North 449 517 39,000  Level Jacksonville Center
Tue 12:51:15 31.7403 -81.2339 North 449 517 39,000  Level Jacksonville Center
Tue 12:52:15 31.8758 -81.2217 North 443 510 39,000  Level Jacksonville Center
Tue 12:53:15 31.9906 -81.2147 North 443 510 39,000  Level Jacksonville Center
Tue 12:54:15 32.1156 -81.2000 North 443 510 39,000  Level Jacksonville Center
Tue 12:55:15 32.2317 -81.1389 24° Northeast 443 510 39,000  Level Jacksonville Center
Tue 12:56:15 32.3556 -81.0506 31° Northeast 453 521 39,000  Level Jacksonville Center
Tue 12:57:15 32.4547 -80.9772 32° Northeast 461 531 39,000  Level Jacksonville Center
Tue 12:58:15 32.5642 -80.8983 31° Northeast 461 531 39,000  Level Jacksonville Center
Tue 12:59:15 32.6756 -80.8169 32° Northeast 461 531 39,000  Level Jacksonville Center
Tue 13:00:15 32.7828 -80.7406 31° Northeast 461 531 39,000  Level Jacksonville Center
Tue 13:01:15 32.8964 -80.6586 31° Northeast 467 537 39,000  Level Jacksonville Center
Tue 13:02:15 33.0075 -80.5764 32° Northeast 467 537 39,000  Level Jacksonville Center
Tue 13:03:15 33.1186 -80.4967 31° Northeast 467 537 39,000  Level Jacksonville Center
Tue 13:04:15 33.2339 -80.4142 31° Northeast 467 537 39,000  Level Jacksonville Center
Tue 13:05:15 33.3553 -80.3239 32° Northeast 467 537 39,000  Level Jacksonville Center
Tue 13:06:15 33.4664 -80.2408 32° Northeast 467 537 39,000  Level Jacksonville Center
Tue 13:07:15 33.5731 -80.1581 33° Northeast 467 537 39,000  Level Jacksonville Center
Tue 13:08:15 33.6839 -80.0747 32° Northeast 467 537 39,000  Level Jacksonville Center
Tue 13:09:15 33.7928 -79.9936 32° Northeast 467 537 39,000  Level Jacksonville Center
Tue 13:11:06 33.9769 -79.8539 32° Northeast 465 535 39,000  Level Washington Center
Tue 13:12:06 34.0842 -79.7692 33° Northeast 465 535 39,000  Level Washington Center
Tue 13:13:06 34.1956 -79.6894 31° Northeast 465 535 39,000  Level Washington Center
Tue 13:14:06 34.3106 -79.6172 27° Northeast 465 535 39,000  Level Washington Center
Tue 13:15:06 34.4275 -79.5575 23° Northeast 453 521 39,000  Level Washington Center
Tue 13:16:06 34.5442 -79.4975 23° Northeast 453 521 39,000 -350 Level Washington Center
Tue 13:17:06 34.6611 -79.4325 25° Northeast 448 516 38,300 -950 Descending Washington Center
Tue 13:18:06 34.7839 -79.3700 23° Northeast 455 524 37,100 -1,050 Descending Washington Center
Tue 13:19:06 34.9072 -79.3022 24° Northeast 466 536 36,200 -1,200 Descending Washington Center
Tue 13:20:06 35.0281 -79.2394 23° Northeast 466 536 34,700 -1,500 Descending Washington Center
Tue 13:21:06 35.1531 -79.1739 23° Northeast 466 536 33,200 -1,500 Descending Washington Center
Tue 13:22:06 35.2761 -79.1081 24° Northeast 466 536 31,700 -1,100 Descending Washington Center
Tue 13:23:06 35.4011 -79.0447 22° Northeast 466 536 31,000 -350 Descending Washington Center
Tue 13:24:06 35.5197 -78.9811 24° Northeast 466 536 31,000 -350 Level Washington Center
Tue 13:25:06 35.6406 -78.9147 24° Northeast 461 531 30,300 -1,150 Descending Washington Center
Tue 13:26:06 35.7614 -78.8481 24° Northeast 461 531 28,700 -1,550 Descending Washington Center
Tue 13:27:06 35.8883 -78.7789 24° Northeast 461 531 27,200 -850 Descending Washington Center
Tue 13:28:06 36.0028 -78.7142 25° Northeast 451 519 27,000 -100 Descending Washington Center
Tue 13:29:06 36.1128 -78.6517 25° Northeast 438 504 27,000  Level Washington Center
Tue 13:30:06 36.2208 -78.5889 25° Northeast 433 498 27,000  Level Washington Center
Tue 13:31:06 36.3331 -78.5236 25° Northeast 433 498 27,000  Level Washington Center
Tue 13:32:06 36.4472 -78.4633 23° Northeast 433 498 27,000  Level Washington Center
Tue 13:33:06 36.5592 -78.3975 25° Northeast 433 498 27,000  Level Washington Center
Tue 13:34:06 36.6694 -78.3317 26° Northeast 433 498 27,000 -450 Level Washington Center
Tue 13:35:06 36.7667 -78.2728 26° Northeast 428 493 26,100 -1,000 Descending Washington Center
Tue 13:36:06 36.8806 -78.2092 24° Northeast 433 498 25,000 -545 Descending Washington Center
Tue 13:37:07 36.9906 -78.1428 26° Northeast 433 498 25,000 -750 Level Washington Center
Tue 13:38:06 37.1067 -78.0789 24° Northeast 433 498 23,500 -1,462 Descending Washington Center
Tue 13:39:06 37.2208 -78.0097 26° Northeast 439 505 22,100 -750 Descending Washington Center
Tue 13:40:06 37.3325 -77.9453 25° Northeast 444 511 22,000 -50 Descending Washington Center
Tue 13:41:06 37.4422 -77.8806 25° Northeast 444 511 22,000  Level Washington Center
Tue 13:42:06 37.5497 -77.8183 25° Northeast 434 499 22,000 -450 Level Washington Center
Tue 13:43:06 37.6575 -77.7533 26° Northeast 429 494 21,100 -1,750 Descending Washington Center
Tue 13:44:06 37.7669 -77.6881 25° Northeast 429 494 18,500 -2,450 Descending Washington Center
Tue 13:45:06 37.8722 -77.6278 24° Northeast 423 487 16,200 -2,400 Descending Washington Center
Tue 13:46:06 37.9714 -77.5700 25° Northeast 409 471 13,700 -2,800 Descending Washington Center
Tue 13:47:06 38.0725 -77.5094 25° Northeast 373 429 10,600 -1,850 Descending Washington Center
Tue 13:48:06 38.1631 -77.4508 27° Northeast 363 418 10,000 -300 Descending Washington Center
Tue 13:49:06 38.2367 -77.4106 23° Northeast 300 345 10,000 -50 Level Washington Center
Tue 13:50:06 38.3161 -77.3858 14° North 295 339 9,900 -950 Descending Washington Center
Tue 13:51:06 38.3889 -77.4142 343° North 273 314 8,100 -1,850 Descending Washington Center
Tue 13:52:06 38.4633 -77.4400 345° North 268 308 6,200 -1,900 Descending Washington Center
Tue 13:53:06 38.5428 -77.4392 360° North 275 316 4,300 -1,100 Descending Washington Center
Tue 13:54:06 38.6178 -77.4411 359° North 270 311 4,000 -228 Descending Washington Center
Tue 13:54:25 38.6500 -77.4500 348° North 268 308 4,000  Level Potomac TRACON
Tue 13:55:25 38.7167 -77.4667 349° North 263 303 4,000 -526 Level Potomac TRACON
Tue 13:56:19 38.7833 -77.4667 360° North 259 298 3,000 -947 Descending Potomac TRACON
Tue 13:57:19 38.8333 -77.4667 360° North 208 239 2,200 -850 Descending Potomac TRACON
Tue 13:58:19 38.8833 -77.4667 360° North 141 162 1,300 -800 Descending Potomac TRACON
Tue 13:59:19 38.9333 -77.4667 360° North 145 167 600 -700 Descending Potomac TRACON
Tue 14:01:00 38.9474 -77.4599 191° South  Level Estimated
Tue 14:08:00 38.9474 -77.4599 191° South  Level Estimated
Tue 14:09:00 38.9474 -77.4599 191° South  Level Estimated
Tue 14:10:00 38.9474 -77.4599 191° South  Level Estimated

Login

Don't have an account? Register now (free) for customized features, flight alerts, and more!